Terminal Aerodrome Forecast
Issued by NWS Wilmington, OH

Current Version | Previous Version | Graphics & Text | Print | Product List | Glossary On
Versions: 1 2 3 4 5 6 7 8 9 10 11 12 13 14
253
FTUS41 KILN 212323
TAFDAY
TAF
KDAY 212323Z 2200/2224 33014G22KT P6SM -SHRA OVC050
     FM220400 35014KT P6SM SCT250
     FM221400 03012G18KT P6SM SKC
     FM222300 04010KT P6SM SCT250=

USA.gov is the U.S. government's official web portal to all federal, state and local government web resources and services.